createdAt,value
2018-05-31T00:00:58.196Z,22.68
2018-05-31T00:02:00.224Z,22.54
2018-05-31T00:02:59.811Z,22.50
2018-05-31T00:03:59.785Z,22.54
2018-05-31T00:05:00.805Z,22.54
2018-05-31T00:06:49.442Z,22.52
2018-05-31T00:07:49.458Z,22.54
2018-05-31T00:08:47.782Z,22.53
2018-05-31T00:09:48.205Z,22.50
2018-05-31T00:10:50.399Z,22.53
2018-05-31T00:11:49.405Z,22.57
2018-05-31T00:12:47.811Z,22.54
2018-05-31T00:14:41.693Z,22.43
2018-05-31T00:15:37.454Z,22.43
2018-05-31T00:16:38.966Z,22.43
2018-05-31T00:17:39.145Z,22.39
2018-05-31T00:18:37.461Z,22.39
2018-05-31T00:19:37.424Z,22.39
2018-05-31T00:20:37.464Z,22.39
2018-05-31T00:21:24.678Z,22.25
2018-05-31T00:22:24.579Z,22.28
2018-05-31T00:23:24.574Z,22.25
2018-05-31T00:24:24.832Z,22.22
2018-05-31T00:25:24.485Z,22.25
2018-05-31T00:26:24.527Z,22.22
2018-05-31T00:27:24.547Z,22.19
2018-05-31T00:28:31.170Z,22.22
2018-05-31T00:31:56.173Z,22.20
2018-05-31T00:32:56.201Z,22.16
2018-05-31T00:33:56.263Z,22.09
2018-05-31T00:34:56.687Z,22.12
2018-05-31T00:35:56.201Z,22.12
2018-05-31T00:36:56.244Z,22.17
2018-05-31T00:37:56.233Z,22.10
2018-05-31T00:38:48.406Z,22.06
2018-05-31T00:39:47.985Z,22.12
2018-05-31T00:40:47.990Z,22.12
2018-05-31T00:41:50.115Z,22.04
2018-05-31T00:42:48.032Z,22.10
2018-05-31T00:43:48.435Z,22.14
2018-05-31T00:44:48.057Z,22.01
2018-05-31T00:45:50.038Z,22.07
2018-05-31T00:46:48.086Z,22.12
2018-05-31T00:49:13.623Z,21.98
2018-05-31T00:50:17.158Z,21.98
2018-05-31T00:51:12.450Z,21.99
2018-05-31T00:52:12.431Z,22.01
2018-05-31T00:53:12.858Z,21.95
2018-05-31T00:54:12.430Z,21.97
2018-05-31T00:55:12.434Z,21.97
2018-05-31T00:56:12.453Z,21.95
2018-05-31T00:57:12.472Z,21.92
2018-05-31T00:58:12.496Z,21.97
2018-05-31T00:59:12.488Z,21.95
2018-05-31T01:02:56.212Z,21.92
2018-05-31T01:03:54.110Z,21.95
2018-05-31T01:04:54.118Z,22.01
2018-05-31T01:05:54.392Z,21.91
2018-05-31T01:06:55.118Z,21.95
2018-05-31T01:07:54.109Z,21.88
2018-05-31T01:08:55.144Z,21.91
2018-05-31T01:16:17.834Z,21.83
2018-05-31T01:17:15.970Z,21.85
2018-05-31T01:18:15.865Z,21.81
2018-05-31T01:19:15.974Z,21.92
2018-05-31T01:20:16.835Z,21.90
2018-05-31T01:21:15.842Z,21.85
2018-05-31T01:25:33.310Z,21.76
2018-05-31T01:26:31.306Z,21.78
2018-05-31T01:27:31.322Z,21.78
2018-05-31T01:28:31.393Z,21.79
2018-05-31T01:29:31.440Z,21.75
2018-05-31T01:30:31.318Z,21.67
2018-05-31T01:31:31.337Z,21.66
2018-05-31T01:33:24.055Z,21.74
2018-05-31T01:34:23.972Z,21.64
2018-05-31T01:35:23.989Z,21.61
2018-05-31T01:36:24.026Z,21.63
2018-05-31T01:37:24.260Z,21.54
2018-05-31T01:38:23.977Z,21.59
2018-05-31T01:39:23.934Z,21.56
2018-05-31T01:40:25.979Z,21.59
2018-05-31T01:43:05.981Z,21.50
2018-05-31T01:44:05.902Z,21.54
2018-05-31T01:45:06.067Z,21.45
2018-05-31T01:46:07.187Z,21.35
2018-05-31T01:47:05.860Z,21.42
2018-05-31T01:48:07.935Z,21.29
2018-05-31T01:53:24.948Z,21.41
2018-05-31T01:54:27.736Z,21.36
2018-05-31T01:55:22.935Z,21.39
2018-05-31T01:56:22.834Z,21.39
2018-05-31T01:57:23.052Z,21.39
2018-05-31T01:58:23.830Z,21.44
2018-05-31T01:59:22.844Z,21.41
2018-05-31T02:04:59.662Z,21.32
2018-05-31T02:05:59.077Z,21.30
2018-05-31T02:06:58.913Z,21.16
2018-05-31T02:07:58.895Z,21.16
2018-05-31T02:09:00.329Z,21.16
2018-05-31T02:09:58.900Z,21.13
2018-05-31T02:10:59.910Z,21.05
2018-05-31T02:11:58.934Z,21.14
2018-05-31T02:13:00.972Z,21.08
2018-05-31T02:15:22.559Z,21.09
2018-05-31T02:17:01.497Z,21.13
2018-05-31T02:17:22.552Z,21.08
2018-05-31T02:18:22.551Z,21.06
2018-05-31T02:31:26.781Z,20.95
2018-05-31T02:32:26.361Z,20.95
2018-05-31T02:33:26.468Z,20.95
2018-05-31T02:34:26.708Z,20.89
2018-05-31T02:35:26.376Z,20.91
2018-05-31T02:36:27.446Z,20.83
2018-05-31T02:38:15.360Z,20.83
2018-05-31T02:39:13.353Z,20.80
2018-05-31T02:40:13.405Z,20.79
2018-05-31T02:41:13.874Z,20.81
2018-05-31T02:42:14.427Z,20.74
2018-05-31T02:43:13.410Z,20.84
2018-05-31T02:44:14.424Z,20.79
2018-05-31T02:45:13.427Z,20.69
2018-05-31T02:46:08.459Z,20.81
2018-05-31T02:47:07.719Z,20.69
2018-05-31T02:48:07.763Z,20.71
2018-05-31T02:49:08.785Z,20.71
2018-05-31T02:50:09.021Z,20.69
2018-05-31T02:51:07.726Z,20.62
2018-05-31T02:52:07.748Z,20.59
2018-05-31T02:53:56.446Z,20.56
2018-05-31T02:54:56.127Z,20.53
2018-05-31T02:55:56.458Z,20.56
2018-05-31T02:57:00.685Z,20.51
2018-05-31T02:57:56.031Z,20.61
2018-05-31T02:58:58.057Z,20.59
2018-05-31T02:59:56.032Z,20.43
2018-05-31T03:00:56.064Z,20.53
2018-05-31T03:01:56.076Z,20.47
2018-05-31T03:03:46.453Z,20.53
2018-05-31T03:28:33.920Z,20.53
2018-05-31T03:29:31.800Z,20.50
2018-05-31T03:30:31.823Z,20.49
2018-05-31T03:31:33.665Z,20.51
2018-05-31T03:32:32.634Z,20.49
2018-05-31T03:33:31.678Z,20.53
2018-05-31T03:34:31.687Z,20.43
2018-05-31T03:35:31.716Z,20.61
2018-05-31T03:36:31.730Z,20.56
2018-05-31T03:37:31.772Z,20.58
2018-05-31T03:39:21.152Z,20.64
2018-05-31T03:40:19.917Z,20.50
2018-05-31T03:41:18.790Z,20.64
2018-05-31T03:42:24.822Z,20.61
2018-05-31T03:43:18.815Z,20.66
2018-05-31T03:45:06.537Z,20.54
2018-05-31T03:46:06.449Z,20.53
2018-05-31T03:47:07.373Z,20.54
2018-05-31T03:48:06.451Z,20.61
2018-05-31T03:49:53.317Z,20.64
2018-05-31T03:50:53.223Z,20.68
2018-05-31T03:51:53.266Z,20.68
2018-05-31T03:52:53.516Z,20.74
2018-05-31T03:53:53.254Z,20.76
2018-05-31T03:55:53.905Z,20.79
2018-05-31T03:56:53.792Z,20.81
2018-05-31T03:57:53.757Z,20.77
2018-05-31T03:58:53.774Z,20.84
2018-05-31T03:59:54.153Z,20.95
2018-05-31T04:00:53.793Z,20.87
2018-05-31T04:01:53.745Z,20.89
2018-05-31T04:03:42.798Z,20.95
2018-05-31T04:04:43.890Z,20.99
2018-05-31T04:05:42.787Z,20.99
2018-05-31T04:06:42.988Z,21.02
2018-05-31T04:07:42.787Z,21.09
2018-05-31T04:08:42.839Z,21.08
2018-05-31T04:10:52.549Z,21.04
2018-05-31T04:11:52.471Z,21.20
2018-05-31T04:13:48.997Z,21.20
2018-05-31T04:14:47.670Z,21.11
2018-05-31T04:15:47.752Z,21.29
2018-05-31T04:16:47.682Z,21.21
2018-05-31T04:17:47.786Z,21.21
2018-05-31T04:18:47.682Z,21.21
2018-05-31T04:19:47.720Z,21.27
2018-05-31T04:23:05.165Z,21.38
2018-05-31T04:24:03.139Z,21.32
2018-05-31T04:25:03.077Z,21.48
2018-05-31T04:26:03.136Z,21.45
2018-05-31T04:27:03.134Z,21.36
2018-05-31T04:28:04.285Z,21.57
2018-05-31T04:29:03.141Z,21.46
2018-05-31T04:30:03.161Z,21.53
2018-05-31T04:31:03.188Z,21.61
2018-05-31T04:32:17.526Z,21.61
2018-05-31T04:33:18.459Z,21.54
2018-05-31T04:34:17.658Z,21.67
2018-05-31T04:35:19.473Z,21.66
2018-05-31T04:36:17.442Z,21.72
2018-05-31T04:37:17.462Z,21.74
2018-05-31T04:38:17.528Z,21.74
2018-05-31T04:39:18.494Z,21.74
2018-05-31T04:40:17.437Z,21.82
2018-05-31T04:41:19.493Z,21.82
2018-05-31T04:42:17.471Z,21.92
2018-05-31T04:44:22.086Z,21.88
2018-05-31T04:45:22.087Z,21.88
2018-05-31T04:47:25.613Z,21.95
2018-05-31T04:48:24.453Z,21.85
2018-05-31T04:49:24.517Z,21.99
2018-05-31T04:50:24.717Z,21.91
2018-05-31T04:51:24.504Z,21.94
2018-05-31T04:53:13.439Z,22.07
2018-05-31T04:54:11.486Z,22.06
2018-05-31T04:55:12.488Z,22.13
2018-05-31T04:56:11.583Z,22.10
2018-05-31T04:57:11.439Z,22.12
2018-05-31T04:58:11.496Z,22.06
2018-05-31T05:00:04.186Z,22.12
2018-05-31T05:01:05.129Z,22.10
2018-05-31T05:03:27.022Z,22.28
2018-05-31T05:04:26.545Z,22.27
2018-05-31T05:05:26.574Z,22.31
2018-05-31T05:06:28.769Z,22.37
2018-05-31T05:07:26.572Z,22.38
2018-05-31T05:08:26.566Z,22.34
2018-05-31T05:10:14.549Z,22.38
2018-05-31T05:11:14.567Z,22.46
2018-05-31T05:12:15.611Z,22.50
2018-05-31T05:13:14.671Z,22.54
2018-05-31T05:14:14.571Z,22.43
2018-05-31T05:16:01.591Z,22.53
2018-05-31T05:17:01.420Z,22.41
2018-05-31T05:18:01.383Z,22.47
2018-05-31T05:19:01.638Z,22.39
2018-05-31T05:20:01.380Z,22.53
2018-05-31T05:21:01.409Z,22.49
2018-05-31T05:22:01.392Z,22.50
2018-05-31T05:23:01.429Z,22.50
2018-05-31T05:24:01.452Z,22.53
2018-05-31T05:25:01.452Z,22.56
2018-05-31T05:26:01.449Z,22.64
2018-05-31T05:27:01.507Z,22.62
2018-05-31T05:28:01.495Z,22.71
2018-05-31T05:29:01.524Z,22.68
2018-05-31T05:30:01.530Z,22.72
2018-05-31T05:31:01.533Z,22.86
2018-05-31T05:32:01.566Z,22.89
2018-05-31T05:33:53.427Z,22.96
2018-05-31T05:34:54.106Z,22.94
2018-05-31T05:35:53.104Z,23.15
2018-05-31T05:36:54.169Z,23.17
2018-05-31T05:37:53.188Z,23.23
2018-05-31T05:38:53.167Z,23.26
2018-05-31T05:39:53.342Z,23.29
2018-05-31T05:40:54.173Z,23.39
2018-05-31T05:41:53.214Z,23.34
2018-05-31T05:43:49.946Z,23.46
2018-05-31T05:44:50.791Z,23.60
2018-05-31T05:45:49.833Z,23.72
2018-05-31T05:46:50.786Z,23.72
2018-05-31T05:47:49.975Z,23.83
2018-05-31T05:48:49.791Z,23.94
2018-05-31T05:49:49.803Z,23.85
2018-05-31T05:51:36.810Z,23.86
2018-05-31T05:52:36.802Z,23.89
2018-05-31T05:53:36.805Z,23.79
2018-05-31T05:54:36.861Z,23.90
2018-05-31T06:04:03.652Z,24.08
2018-05-31T06:05:03.547Z,24.02
2018-05-31T06:06:03.641Z,24.07
2018-05-31T06:07:03.635Z,24.14
2018-05-31T06:08:03.612Z,24.13
2018-05-31T06:09:52.087Z,24.17
2018-05-31T06:10:53.054Z,24.24
2018-05-31T06:11:52.067Z,24.22
2018-05-31T06:12:52.164Z,24.32
2018-05-31T06:13:52.052Z,24.27
2018-05-31T06:14:52.080Z,24.42
2018-05-31T06:16:43.465Z,24.39
2018-05-31T06:17:43.370Z,24.41
2018-05-31T06:19:39.915Z,24.45
2018-05-31T06:20:42.003Z,24.44
2018-05-31T06:21:40.330Z,24.45
2018-05-31T06:22:39.919Z,24.44
2018-05-31T06:23:39.895Z,24.44
2018-05-31T06:24:39.964Z,24.47
2018-05-31T06:26:28.136Z,24.57
2018-05-31T06:27:26.912Z,24.61
2018-05-31T06:28:27.017Z,24.53
2018-05-31T06:29:27.092Z,24.61
2018-05-31T06:30:27.126Z,24.53
2018-05-31T06:31:27.982Z,24.49
2018-05-31T06:32:26.960Z,24.53
2018-05-31T06:33:26.999Z,24.56
2018-05-31T06:34:26.999Z,24.52
2018-05-31T06:36:28.927Z,24.64
2018-05-31T06:37:28.867Z,24.61
2018-05-31T06:38:28.865Z,24.77
2018-05-31T06:39:28.921Z,24.77
2018-05-31T06:40:28.903Z,24.92
2018-05-31T06:41:34.047Z,25.00
2018-05-31T06:42:28.878Z,25.00
2018-05-31T06:43:28.899Z,25.06
2018-05-31T06:44:28.899Z,25.07
2018-05-31T06:46:16.618Z,25.10
2018-05-31T06:47:16.705Z,25.01
2018-05-31T06:48:16.613Z,25.06
2018-05-31T06:50:16.668Z,25.10
2018-05-31T06:51:16.683Z,25.12
2018-05-31T06:52:16.650Z,25.20
2018-05-31T06:53:16.721Z,25.30
2018-05-31T06:55:13.486Z,25.30
2018-05-31T06:56:13.213Z,25.37
2018-05-31T06:57:15.342Z,25.38
2018-05-31T06:58:13.330Z,25.46
2018-05-31T06:59:13.246Z,25.43
2018-05-31T07:00:13.210Z,25.47
2018-05-31T07:02:05.459Z,25.50
2018-05-31T07:03:06.165Z,25.46
2018-05-31T07:04:05.099Z,25.64
2018-05-31T07:05:05.152Z,25.71
2018-05-31T07:06:05.049Z,25.69
2018-05-31T07:07:05.115Z,25.77
2018-05-31T07:08:05.103Z,25.89
2018-05-31T07:08:53.537Z,25.90
2018-05-31T07:09:52.248Z,25.90
2018-05-31T07:10:52.332Z,25.99
2018-05-31T07:11:52.368Z,26.01
2018-05-31T07:12:52.406Z,26.02
2018-05-31T07:13:52.612Z,26.04
2018-05-31T07:14:52.392Z,26.12
2018-05-31T07:15:52.337Z,26.15
2018-05-31T07:16:52.377Z,26.20
2018-05-31T07:17:52.405Z,26.20
2018-05-31T07:18:52.475Z,26.18
2018-05-31T07:20:39.588Z,26.27
2018-05-31T07:21:39.364Z,26.32
2018-05-31T07:22:39.366Z,26.31
2018-05-31T07:23:39.498Z,26.36
2018-05-31T07:24:39.387Z,26.32
2018-05-31T07:25:39.388Z,26.32
2018-05-31T07:26:39.400Z,26.32
2018-05-31T07:27:39.433Z,26.39
2018-05-31T07:29:26.326Z,26.44
2018-05-31T07:30:26.340Z,26.49
2018-05-31T07:31:26.239Z,26.44
2018-05-31T07:32:26.342Z,26.46
2018-05-31T07:33:26.476Z,26.46
2018-05-31T07:34:26.337Z,26.43
2018-05-31T07:35:26.297Z,26.43
2018-05-31T07:36:14.970Z,26.50
2018-05-31T07:37:14.967Z,26.43
2018-05-31T07:38:14.912Z,26.46
2018-05-31T07:39:14.944Z,26.47
2018-05-31T07:40:14.908Z,26.46
2018-05-31T07:41:14.957Z,26.58
2018-05-31T07:43:02.309Z,26.49
2018-05-31T07:44:02.163Z,26.54
2018-05-31T07:45:02.179Z,26.64
2018-05-31T07:46:02.162Z,26.62
2018-05-31T07:47:02.220Z,26.61
2018-05-31T07:48:02.243Z,26.52
2018-05-31T07:49:04.300Z,26.68
2018-05-31T07:50:49.219Z,26.76
2018-05-31T07:51:49.179Z,26.77
2018-05-31T07:52:50.354Z,26.84
2018-05-31T07:53:49.332Z,26.81
2018-05-31T07:54:49.228Z,26.94
2018-05-31T07:55:49.220Z,26.95
2018-05-31T07:56:49.250Z,27.04
2018-05-31T07:57:50.316Z,26.89
2018-05-31T07:58:49.299Z,27.05
2018-05-31T07:59:49.423Z,26.92
2018-05-31T08:01:43.408Z,27.06
2018-05-31T08:02:43.350Z,27.05
2018-05-31T08:03:48.184Z,27.13
2018-05-31T08:04:43.307Z,27.19
2018-05-31T08:05:45.493Z,27.21
2018-05-31T08:15:35.042Z,27.23
2018-05-31T08:16:34.989Z,27.28
2018-05-31T08:17:35.020Z,27.26
2018-05-31T08:18:35.059Z,27.36
2018-05-31T08:19:35.031Z,27.36
2018-05-31T08:20:41.673Z,27.39
2018-05-31T08:21:34.928Z,27.38
2018-05-31T08:22:35.103Z,27.43
2018-05-31T08:26:40.404Z,27.46
2018-05-31T08:27:45.975Z,27.41
2018-05-31T08:28:40.380Z,27.24
2018-05-31T08:29:41.615Z,27.36
2018-05-31T08:30:40.337Z,27.32
2018-05-31T08:32:41.064Z,27.39
2018-05-31T08:38:47.901Z,27.70
2018-05-31T08:39:50.195Z,27.73
2018-05-31T08:40:48.053Z,27.76
2018-05-31T08:41:49.946Z,27.74
2018-05-31T08:42:47.859Z,27.84
2018-05-31T08:43:47.770Z,27.98
2018-05-31T08:44:47.792Z,27.92
2018-05-31T08:45:35.167Z,27.89
2018-05-31T08:46:35.068Z,28.01
2018-05-31T08:47:35.143Z,28.16
2018-05-31T08:48:35.071Z,28.07
2018-05-31T08:49:35.185Z,28.13
2018-05-31T08:50:35.134Z,28.06
2018-05-31T08:51:35.321Z,27.96
2018-05-31T08:52:35.155Z,27.94
2018-05-31T08:53:36.218Z,27.92
2018-05-31T08:54:35.169Z,28.04
2018-05-31T08:55:37.265Z,28.06
2018-05-31T08:56:35.219Z,28.21
2018-05-31T08:58:53.100Z,28.23
2018-05-31T08:59:53.093Z,28.29
2018-05-31T09:00:53.112Z,28.32
2018-05-31T09:01:53.138Z,28.29
2018-05-31T09:02:53.183Z,28.43
2018-05-31T09:03:53.224Z,28.46
2018-05-31T09:04:53.264Z,28.43
2018-05-31T09:05:58.154Z,28.59
2018-05-31T09:06:53.170Z,28.59
2018-05-31T09:07:53.249Z,28.72
2018-05-31T09:08:53.204Z,28.72
2018-05-31T09:09:53.217Z,28.77
2018-05-31T09:10:53.250Z,28.72
2018-05-31T09:11:50.015Z,28.80
2018-05-31T09:12:49.989Z,28.91
2018-05-31T09:13:50.005Z,28.95
2018-05-31T09:14:50.006Z,29.07
2018-05-31T09:16:38.540Z,29.16
2018-05-31T09:17:38.218Z,29.19
2018-05-31T09:18:38.329Z,29.38
2018-05-31T09:19:38.297Z,29.34
2018-05-31T09:20:38.592Z,29.43
2018-05-31T09:21:38.273Z,29.50
2018-05-31T09:22:39.360Z,29.47
2018-05-31T09:24:28.602Z,29.50
2018-05-31T09:25:26.307Z,29.62
2018-05-31T09:26:26.407Z,29.57
2018-05-31T09:27:26.414Z,29.60
2018-05-31T09:28:26.335Z,29.59
2018-05-31T09:29:26.376Z,29.53
2018-05-31T09:30:26.362Z,29.45
2018-05-31T09:31:26.498Z,29.56
2018-05-31T09:33:18.920Z,29.77
2018-05-31T09:34:20.029Z,29.93
2018-05-31T09:35:18.943Z,29.96
2018-05-31T09:36:19.204Z,30.05
2018-05-31T09:37:18.915Z,30.23
2018-05-31T09:38:18.988Z,30.31
2018-05-31T09:40:33.295Z,30.57
2018-05-31T09:41:33.273Z,30.62
2018-05-31T09:45:06.292Z,30.81
2018-05-31T09:46:07.357Z,30.89
2018-05-31T09:47:06.284Z,31.06
2018-05-31T09:48:06.469Z,31.11
2018-05-31T09:49:06.297Z,31.24
2018-05-31T09:50:54.559Z,31.42
2018-05-31T09:51:54.421Z,31.35
2018-05-31T09:52:54.347Z,31.53
2018-05-31T09:53:54.833Z,31.65
2018-05-31T09:54:54.372Z,31.58
2018-05-31T09:55:54.406Z,31.68
2018-05-31T09:56:54.428Z,31.53
2018-05-31T09:59:51.767Z,31.30
2018-05-31T10:00:51.835Z,31.39
2018-05-31T10:01:51.817Z,31.36
2018-05-31T10:02:51.746Z,31.57
2018-05-31T10:03:51.839Z,31.53
2018-05-31T10:04:51.773Z,31.64
2018-05-31T10:05:53.106Z,31.54
2018-05-31T10:06:51.822Z,31.43
2018-05-31T10:07:51.919Z,31.27
2018-05-31T10:08:51.815Z,31.20
2018-05-31T10:10:48.989Z,31.02
2018-05-31T10:11:50.962Z,30.94
2018-05-31T10:12:48.858Z,30.99
2018-05-31T10:13:49.106Z,31.02
2018-05-31T10:14:48.927Z,30.81
2018-05-31T10:15:48.887Z,30.62
2018-05-31T10:17:43.603Z,30.80
2018-05-31T10:18:43.594Z,30.76
2018-05-31T10:19:43.763Z,30.86
2018-05-31T10:20:43.676Z,30.89
2018-05-31T10:21:43.872Z,30.91
2018-05-31T10:22:48.147Z,31.02
2018-05-31T10:23:43.627Z,30.83
2018-05-31T10:24:48.658Z,30.80
2018-05-31T10:25:43.670Z,30.83
2018-05-31T10:26:44.779Z,30.84
2018-05-31T10:27:43.701Z,30.78
2018-05-31T10:29:31.011Z,30.87
2018-05-31T10:30:37.770Z,30.98
2018-05-31T10:31:31.012Z,31.05
2018-05-31T10:32:37.675Z,31.11
2018-05-31T10:34:25.786Z,31.31
2018-05-31T10:35:49.787Z,31.42
2018-05-31T10:36:25.674Z,31.54
2018-05-31T10:37:25.763Z,31.65
2018-05-31T10:38:25.899Z,31.79
2018-05-31T10:39:31.787Z,31.77
2018-05-31T10:40:25.715Z,31.95
2018-05-31T10:41:26.889Z,31.95
2018-05-31T10:45:58.232Z,32.24
2018-05-31T10:46:59.322Z,32.25
2018-05-31T10:47:58.240Z,32.33
2018-05-31T10:49:00.313Z,32.40
2018-05-31T10:49:58.245Z,32.33
2018-05-31T10:51:00.310Z,32.35
2018-05-31T10:52:52.706Z,32.33
2018-05-31T10:53:52.343Z,32.37
2018-05-31T10:54:53.373Z,32.49
2018-05-31T10:55:52.355Z,32.58
2018-05-31T10:56:56.969Z,32.49
2018-05-31T10:57:52.354Z,32.51
2018-05-31T10:58:54.413Z,32.64
2018-05-31T10:59:41.966Z,32.64
2018-05-31T11:00:42.975Z,32.80
2018-05-31T11:01:41.916Z,32.96
2018-05-31T11:02:43.021Z,32.89
2018-05-31T11:03:41.951Z,32.79
2018-05-31T11:04:42.094Z,32.92
2018-05-31T11:06:47.321Z,33.11
2018-05-31T11:07:42.071Z,33.10
2018-05-31T11:08:44.269Z,33.08
2018-05-31T11:09:42.079Z,33.17
2018-05-31T11:10:48.757Z,33.20
2018-05-31T11:11:42.125Z,33.33
2018-05-31T11:12:42.234Z,33.33
2018-05-31T11:13:42.194Z,33.29
2018-05-31T11:14:42.256Z,33.41
2018-05-31T11:16:29.412Z,33.33
2018-05-31T11:17:29.410Z,33.41
2018-05-31T11:18:29.419Z,33.42
2018-05-31T11:19:29.487Z,33.41
2018-05-31T11:20:29.373Z,33.45
2018-05-31T11:22:21.596Z,33.34
2018-05-31T11:23:22.615Z,33.33
2018-05-31T11:24:21.994Z,33.37
2018-05-31T11:25:21.647Z,33.42
2018-05-31T11:26:21.530Z,33.43
2018-05-31T11:27:21.682Z,33.46
2018-05-31T11:28:21.633Z,33.45
2018-05-31T11:29:21.669Z,33.49
2018-05-31T11:30:21.584Z,33.48
2018-05-31T11:31:21.698Z,33.46
2018-05-31T11:33:29.857Z,33.52
2018-05-31T11:34:29.767Z,33.37
2018-05-31T11:35:29.771Z,33.33
2018-05-31T11:36:29.954Z,33.15
2018-05-31T11:37:29.802Z,33.06
2018-05-31T11:38:29.946Z,32.84
2018-05-31T11:39:29.828Z,32.86
2018-05-31T11:41:17.040Z,32.93
2018-05-31T11:42:16.829Z,32.71
2018-05-31T11:43:16.820Z,32.73
2018-05-31T11:44:16.998Z,32.73
2018-05-31T11:45:16.980Z,32.71
2018-05-31T11:46:16.978Z,32.86
2018-05-31T11:48:05.995Z,32.92
2018-05-31T11:49:03.639Z,32.92
2018-05-31T11:50:03.667Z,32.93
2018-05-31T11:51:03.841Z,33.11
2018-05-31T11:52:03.796Z,33.31
2018-05-31T11:53:04.828Z,33.37
2018-05-31T11:54:03.720Z,33.43
2018-05-31T11:55:03.829Z,33.43
2018-05-31T11:56:03.727Z,33.49
2018-05-31T11:57:03.844Z,33.60
2018-05-31T11:58:03.789Z,33.58
2018-05-31T11:59:04.874Z,33.71
2018-05-31T12:00:03.806Z,33.74
2018-05-31T12:01:03.871Z,33.74
2018-05-31T12:02:03.844Z,33.86
2018-05-31T12:03:51.183Z,33.97
2018-05-31T12:04:52.030Z,33.97
2018-05-31T12:05:50.970Z,34.00
2018-05-31T12:06:51.086Z,34.17
2018-05-31T12:07:51.029Z,34.22
2018-05-31T12:08:52.044Z,34.23
2018-05-31T12:09:51.066Z,34.24
2018-05-31T12:10:51.201Z,34.29
2018-05-31T12:11:51.065Z,34.14
2018-05-31T12:12:51.145Z,34.07
2018-05-31T12:15:01.149Z,34.04
2018-05-31T12:16:01.212Z,34.09
2018-05-31T12:17:01.353Z,34.00
2018-05-31T12:18:01.303Z,34.00
2018-05-31T12:19:01.742Z,33.73
2018-05-31T12:20:02.293Z,33.52
2018-05-31T12:21:48.697Z,33.49
2018-05-31T12:22:48.607Z,33.36
2018-05-31T12:23:48.767Z,33.37
2018-05-31T12:24:48.621Z,33.39
2018-05-31T12:26:39.074Z,33.41
2018-05-31T12:27:39.150Z,33.36
2018-05-31T12:28:39.101Z,33.39
2018-05-31T12:29:39.409Z,33.34
2018-05-31T12:30:39.137Z,33.46
2018-05-31T12:31:39.122Z,33.30
2018-05-31T12:32:39.195Z,33.37
2018-05-31T12:34:37.544Z,33.49
2018-05-31T12:35:37.328Z,33.49
2018-05-31T12:36:37.350Z,33.60
2018-05-31T12:37:37.448Z,33.79
2018-05-31T12:38:37.719Z,33.82
2018-05-31T12:39:37.407Z,33.87
2018-05-31T12:40:37.410Z,33.83
2018-05-31T12:42:26.299Z,33.95
2018-05-31T12:43:26.362Z,34.04
2018-05-31T12:44:26.297Z,34.09
2018-05-31T12:45:26.335Z,34.16
2018-05-31T12:46:26.328Z,34.22
2018-05-31T12:47:32.202Z,34.20
2018-05-31T12:48:26.424Z,34.29
2018-05-31T12:49:28.379Z,34.24
2018-05-31T12:50:26.416Z,34.27
2018-05-31T12:51:26.434Z,34.20
2018-05-31T12:52:26.424Z,34.23
2018-05-31T12:53:27.459Z,34.22
2018-05-31T12:56:04.475Z,33.98
2018-05-31T12:57:04.554Z,33.90
2018-05-31T12:58:04.505Z,33.90
2018-05-31T12:59:04.507Z,33.86
2018-05-31T13:00:04.529Z,33.82
2018-05-31T13:01:04.524Z,33.73
2018-05-31T13:02:04.625Z,33.85
2018-05-31T13:02:56.264Z,33.82
2018-05-31T13:03:56.245Z,33.73
2018-05-31T13:04:56.181Z,33.70
2018-05-31T13:05:57.295Z,33.67
2018-05-31T13:06:56.255Z,33.61
2018-05-31T13:07:56.286Z,33.64
2018-05-31T13:08:56.277Z,33.65
2018-05-31T13:09:57.459Z,33.61
2018-05-31T13:10:56.307Z,33.79
2018-05-31T13:11:56.417Z,33.76
2018-05-31T13:13:45.043Z,33.85
2018-05-31T13:14:47.401Z,33.95
2018-05-31T13:15:43.161Z,34.05
2018-05-31T13:16:44.948Z,33.97
2018-05-31T13:17:44.952Z,34.00
2018-05-31T13:18:43.400Z,33.98
2018-05-31T13:19:43.239Z,33.90
2018-05-31T13:20:43.452Z,33.83
2018-05-31T13:21:43.274Z,33.79
2018-05-31T13:22:44.426Z,33.70
2018-05-31T13:23:43.316Z,33.70
2018-05-31T13:25:00.060Z,33.65
2018-05-31T13:26:32.561Z,33.58
2018-05-31T13:27:31.381Z,33.58
2018-05-31T13:28:31.421Z,33.57
2018-05-31T13:29:33.425Z,33.49
2018-05-31T13:30:31.407Z,33.45
2018-05-31T13:40:01.759Z,33.36
2018-05-31T13:41:01.649Z,33.43
2018-05-31T13:42:03.798Z,33.31
2018-05-31T13:43:01.696Z,33.37
2018-05-31T13:44:03.838Z,33.30
2018-05-31T13:45:01.809Z,33.27
2018-05-31T13:46:03.880Z,33.14
2018-05-31T13:47:01.778Z,33.17
2018-05-31T13:48:01.843Z,33.17
2018-05-31T13:49:01.795Z,33.14
2018-05-31T13:59:39.095Z,32.96
2018-05-31T14:00:41.218Z,32.88
2018-05-31T14:01:39.141Z,32.81
2018-05-31T14:02:51.000Z,32.71
2018-05-31T14:03:39.178Z,32.73
2018-05-31T14:04:39.213Z,32.61
2018-05-31T14:05:39.135Z,32.62
2018-05-31T14:06:39.268Z,32.43
2018-05-31T14:07:39.175Z,32.44
2018-05-31T14:08:39.280Z,32.43
2018-05-31T14:09:39.212Z,32.36
2018-05-31T14:10:39.253Z,32.29
2018-05-31T14:11:39.260Z,32.25
2018-05-31T14:12:39.376Z,32.27
2018-05-31T14:13:39.268Z,32.27
2018-05-31T14:14:40.413Z,32.20
2018-05-31T14:15:39.335Z,32.10
2018-05-31T14:16:39.396Z,32.05
2018-05-31T14:17:39.368Z,32.06
2018-05-31T14:18:39.414Z,32.05
2018-05-31T14:19:39.390Z,31.99
2018-05-31T14:20:40.465Z,31.88
2018-05-31T14:22:36.554Z,31.82
2018-05-31T14:23:37.545Z,31.84
2018-05-31T14:24:36.557Z,31.68
2018-05-31T14:25:36.585Z,31.61
2018-05-31T14:26:36.633Z,31.48
2018-05-31T14:27:36.605Z,31.49
2018-05-31T14:28:36.619Z,31.45
2018-05-31T14:29:36.633Z,31.33
2018-05-31T14:30:36.676Z,31.20
2018-05-31T14:31:37.760Z,31.23
2018-05-31T14:32:36.686Z,31.20
2018-05-31T14:33:37.774Z,31.09
2018-05-31T14:34:36.727Z,31.01
2018-05-31T14:35:36.785Z,31.01
2018-05-31T14:37:59.379Z,30.78
2018-05-31T14:38:59.053Z,30.67
2018-05-31T14:39:59.178Z,30.65
2018-05-31T14:40:59.100Z,30.64
2018-05-31T14:42:00.164Z,30.62
2018-05-31T14:42:59.120Z,30.53
2018-05-31T14:44:48.161Z,30.46
2018-05-31T14:46:02.858Z,30.14
2018-05-31T14:46:51.024Z,29.81
2018-05-31T14:48:09.189Z,29.57
2018-05-31T14:50:23.657Z,28.66
2018-05-31T14:51:23.631Z,28.41
2018-05-31T14:52:24.750Z,27.98
2018-05-31T14:53:23.648Z,27.77
2018-05-31T14:54:24.793Z,27.50
2018-05-31T14:55:23.728Z,27.32
2018-05-31T14:56:23.798Z,27.06
2018-05-31T14:57:23.721Z,26.80
2018-05-31T14:58:23.765Z,26.65
2018-05-31T15:00:36.301Z,26.43
2018-05-31T15:01:36.447Z,26.29
2018-05-31T15:02:36.303Z,26.20
2018-05-31T15:03:36.329Z,25.93
2018-05-31T15:04:36.363Z,25.89
2018-05-31T15:05:36.505Z,25.68
2018-05-31T15:06:36.362Z,25.62
2018-05-31T15:07:36.398Z,25.67
2018-05-31T15:08:38.533Z,25.69
2018-05-31T15:09:36.419Z,25.68
2018-05-31T15:11:23.461Z,25.79
2018-05-31T15:12:23.346Z,25.74
2018-05-31T15:13:23.389Z,25.90
2018-05-31T15:14:23.538Z,25.94
2018-05-31T15:15:23.409Z,25.89
2018-05-31T15:16:23.550Z,25.97
2018-05-31T15:17:23.442Z,26.04
2018-05-31T15:18:24.673Z,26.12
2018-05-31T15:19:23.498Z,26.09
2018-05-31T15:20:23.570Z,26.20
2018-05-31T15:21:23.527Z,26.11
2018-05-31T15:22:23.624Z,26.17
2018-05-31T15:23:23.584Z,26.18
2018-05-31T15:24:23.720Z,26.12
2018-05-31T15:25:23.574Z,26.09
2018-05-31T15:26:24.796Z,26.09
2018-05-31T15:28:12.204Z,26.20
2018-05-31T15:29:12.032Z,26.18
2018-05-31T15:30:12.022Z,26.20
2018-05-31T15:31:12.193Z,26.21
2018-05-31T15:32:12.106Z,26.21
2018-05-31T15:33:12.198Z,26.25
2018-05-31T15:34:12.192Z,26.39
2018-05-31T15:35:12.337Z,26.43
2018-05-31T15:36:12.120Z,26.31
2018-05-31T15:37:14.275Z,26.31
2018-05-31T15:38:12.174Z,26.39
2018-05-31T15:40:02.374Z,26.37
2018-05-31T15:41:02.449Z,26.39
2018-05-31T15:42:02.580Z,26.31
2018-05-31T15:43:02.580Z,26.32
2018-05-31T15:44:02.479Z,26.29
2018-05-31T15:45:02.575Z,26.24
2018-05-31T15:46:02.486Z,26.18
2018-05-31T15:47:04.626Z,26.18
2018-05-31T15:48:58.581Z,26.17
2018-05-31T15:49:59.649Z,25.89
2018-05-31T15:50:58.546Z,25.91
2018-05-31T15:52:00.688Z,25.91
2018-05-31T15:52:58.636Z,25.94
2018-05-31T15:53:58.701Z,25.71
2018-05-31T15:54:58.598Z,25.72
2018-05-31T15:55:58.749Z,25.84
2018-05-31T15:56:58.639Z,25.83